sensor_id;sensor_type;location;lat;lon;timestamp;P1;durP1;ratioP1;P2;durP2;ratioP2
15814;SDS011;8008;50.024;8.172;2023-06-04T03:01:18;3.30;;;1.88;;
15814;SDS011;8008;50.024;8.172;2023-06-04T03:03:47;4.45;;;1.50;;
15814;SDS011;8008;50.024;8.172;2023-06-04T03:06:16;1.63;;;1.52;;
15814;SDS011;8008;50.024;8.172;2023-06-04T03:08:46;3.08;;;1.73;;
15814;SDS011;8008;50.024;8.172;2023-06-04T03:11:15;2.80;;;1.55;;
15814;SDS011;8008;50.024;8.172;2023-06-04T03:13:43;2.25;;;1.48;;
15814;SDS011;8008;50.024;8.172;2023-06-04T03:16:11;2.20;;;1.70;;
15814;SDS011;8008;50.024;8.172;2023-06-04T03:18:41;2.25;;;1.70;;
15814;SDS011;8008;50.024;8.172;2023-06-04T03:21:10;1.70;;;1.55;;
15814;SDS011;8008;50.024;8.172;2023-06-04T03:23:39;2.55;;;1.50;;
15814;SDS011;8008;50.024;8.172;2023-06-04T03:26:07;2.85;;;1.80;;
15814;SDS011;8008;50.024;8.172;2023-06-04T03:28:39;1.95;;;1.30;;
15814;SDS011;8008;50.024;8.172;2023-06-04T03:31:09;1.85;;;1.58;;
15814;SDS011;8008;50.024;8.172;2023-06-04T03:33:37;3.50;;;1.58;;
15814;SDS011;8008;50.024;8.172;2023-06-04T03:36:07;2.38;;;1.50;;
15814;SDS011;8008;50.024;8.172;2023-06-04T03:38:35;4.32;;;1.50;;
15814;SDS011;8008;50.024;8.172;2023-06-04T03:41:03;1.55;;;1.42;;
15814;SDS011;8008;50.024;8.172;2023-06-04T03:43:32;1.98;;;1.33;;
15814;SDS011;8008;50.024;8.172;2023-06-04T03:46:04;2.15;;;1.63;;
15814;SDS011;8008;50.024;8.172;2023-06-04T03:48:32;3.60;;;1.63;;
15814;SDS011;8008;50.024;8.172;2023-06-04T03:51:00;1.65;;;1.45;;
15814;SDS011;8008;50.024;8.172;2023-06-04T03:53:30;1.67;;;1.50;;
15814;SDS011;8008;50.024;8.172;2023-06-04T03:55:59;2.67;;;1.40;;
15814;SDS011;8008;50.024;8.172;2023-06-04T03:58:28;1.90;;;1.40;;
15814;SDS011;8008;50.024;8.172;2023-06-04T04:00:57;2.20;;;1.50;;
15814;SDS011;8008;50.024;8.172;2023-06-04T04:03:25;1.98;;;1.60;;
15814;SDS011;8008;50.024;8.172;2023-06-04T04:05:59;1.60;;;1.50;;
15814;SDS011;8008;50.024;8.172;2023-06-04T04:08:27;2.47;;;1.50;;
15814;SDS011;8008;50.024;8.172;2023-06-04T04:10:59;1.60;;;1.50;;
15814;SDS011;8008;50.024;8.172;2023-06-04T04:13:27;1.60;;;1.30;;
15814;SDS011;8008;50.024;8.172;2023-06-04T04:15:55;2.42;;;1.48;;
15814;SDS011;8008;50.024;8.172;2023-06-04T04:18:23;3.20;;;1.50;;
15814;SDS011;8008;50.024;8.172;2023-06-04T04:20:52;1.45;;;1.27;;
15814;SDS011;8008;50.024;8.172;2023-06-04T04:23:19;1.90;;;1.15;;
15814;SDS011;8008;50.024;8.172;2023-06-04T04:25:47;4.15;;;1.60;;
15814;SDS011;8008;50.024;8.172;2023-06-04T04:28:17;1.38;;;1.27;;
15814;SDS011;8008;50.024;8.172;2023-06-04T04:30:46;3.70;;;1.70;;
15814;SDS011;8008;50.024;8.172;2023-06-04T04:33:15;2.33;;;1.50;;
15814;SDS011;8008;50.024;8.172;2023-06-04T04:35:45;2.88;;;1.63;;
15814;SDS011;8008;50.024;8.172;2023-06-04T04:38:16;1.63;;;1.50;;
15814;SDS011;8008;50.024;8.172;2023-06-04T04:40:50;2.25;;;1.40;;
15814;SDS011;8008;50.024;8.172;2023-06-04T04:43:29;3.35;;;1.45;;
15814;SDS011;8008;50.024;8.172;2023-06-04T04:46:03;2.40;;;1.30;;
15814;SDS011;8008;50.024;8.172;2023-06-04T04:48:32;1.58;;;1.30;;
15814;SDS011;8008;50.024;8.172;2023-06-04T04:51:00;2.25;;;1.33;;
15814;SDS011;8008;50.024;8.172;2023-06-04T04:53:29;2.33;;;1.52;;
15814;SDS011;8008;50.024;8.172;2023-06-04T04:55:57;2.25;;;1.52;;
15814;SDS011;8008;50.024;8.172;2023-06-04T04:58:26;2.80;;;1.70;;
15814;SDS011;8008;50.024;8.172;2023-06-04T05:00:56;2.38;;;1.50;;
15814;SDS011;8008;50.024;8.172;2023-06-04T05:03:24;1.67;;;1.50;;
15814;SDS011;8008;50.024;8.172;2023-06-04T05:05:52;2.53;;;1.33;;
15814;SDS011;8008;50.024;8.172;2023-06-04T05:08:21;2.83;;;1.50;;
15814;SDS011;8008;50.024;8.172;2023-06-04T05:10:49;1.55;;;1.30;;
15814;SDS011;8008;50.024;8.172;2023-06-04T05:13:18;3.67;;;1.33;;
15814;SDS011;8008;50.024;8.172;2023-06-04T05:15:52;1.73;;;1.40;;
15814;SDS011;8008;50.024;8.172;2023-06-04T05:18:25;2.45;;;1.50;;
15814;SDS011;8008;50.024;8.172;2023-06-04T05:20:59;2.00;;;1.45;;
15814;SDS011;8008;50.024;8.172;2023-06-04T05:23:31;2.92;;;1.40;;
15814;SDS011;8008;50.024;8.172;2023-06-04T05:26:01;4.05;;;1.50;;
15814;SDS011;8008;50.024;8.172;2023-06-04T05:28:29;2.13;;;1.40;;
15814;SDS011;8008;50.024;8.172;2023-06-04T05:31:00;1.70;;;1.52;;
15814;SDS011;8008;50.024;8.172;2023-06-04T05:33:33;1.50;;;1.40;;
15814;SDS011;8008;50.024;8.172;2023-06-04T05:36:05;1.60;;;1.50;;
15814;SDS011;8008;50.024;8.172;2023-06-04T05:38:39;4.32;;;1.50;;
15814;SDS011;8008;50.024;8.172;2023-06-04T05:41:11;4.00;;;2.05;;
15814;SDS011;8008;50.024;8.172;2023-06-04T05:43:40;3.20;;;2.00;;
15814;SDS011;8008;50.024;8.172;2023-06-04T05:46:12;2.63;;;2.30;;
15814;SDS011;8008;50.024;8.172;2023-06-04T05:48:43;3.60;;;2.28;;
15814;SDS011;8008;50.024;8.172;2023-06-04T05:51:12;4.32;;;2.40;;
15814;SDS011;8008;50.024;8.172;2023-06-04T05:53:41;3.13;;;2.70;;
15814;SDS011;8008;50.024;8.172;2023-06-04T05:56:09;12.02;;;3.10;;
15814;SDS011;8008;50.024;8.172;2023-06-04T05:58:37;7.20;;;2.72;;
15814;SDS011;8008;50.024;8.172;2023-06-04T06:01:07;3.67;;;2.65;;
15814;SDS011;8008;50.024;8.172;2023-06-04T06:03:35;4.88;;;2.88;;
15814;SDS011;8008;50.024;8.172;2023-06-04T06:06:05;6.13;;;2.50;;
15814;SDS011;8008;50.024;8.172;2023-06-04T06:08:36;2.85;;;2.25;;
15814;SDS011;8008;50.024;8.172;2023-06-04T06:11:05;2.45;;;1.98;;
15814;SDS011;8008;50.024;8.172;2023-06-04T06:13:36;2.80;;;2.05;;
15814;SDS011;8008;50.024;8.172;2023-06-04T06:16:05;1.92;;;1.80;;
15814;SDS011;8008;50.024;8.172;2023-06-04T06:18:33;2.75;;;1.90;;
15814;SDS011;8008;50.024;8.172;2023-06-04T06:21:01;2.00;;;1.70;;
15814;SDS011;8008;50.024;8.172;2023-06-04T06:23:30;2.92;;;1.63;;
15814;SDS011;8008;50.024;8.172;2023-06-04T06:25:59;3.15;;;1.60;;
15814;SDS011;8008;50.024;8.172;2023-06-04T06:28:32;2.38;;;1.60;;
15814;SDS011;8008;50.024;8.172;2023-06-04T06:31:00;1.83;;;1.48;;
15814;SDS011;8008;50.024;8.172;2023-06-04T06:33:28;2.13;;;1.58;;
15814;SDS011;8008;50.024;8.172;2023-06-04T06:35:57;4.05;;;1.60;;
15814;SDS011;8008;50.024;8.172;2023-06-04T06:38:26;1.70;;;1.60;;
15814;SDS011;8008;50.024;8.172;2023-06-04T06:40:55;1.80;;;1.48;;
15814;SDS011;8008;50.024;8.172;2023-06-04T06:43:23;1.67;;;1.52;;
15814;SDS011;8008;50.024;8.172;2023-06-04T06:45:51;2.17;;;1.52;;
15814;SDS011;8008;50.024;8.172;2023-06-04T06:48:19;2.05;;;1.60;;
15814;SDS011;8008;50.024;8.172;2023-06-04T06:50:47;2.22;;;1.60;;
15814;SDS011;8008;50.024;8.172;2023-06-04T06:53:15;1.95;;;1.60;;
15814;SDS011;8008;50.024;8.172;2023-06-04T06:55:43;3.85;;;1.35;;
15814;SDS011;8008;50.024;8.172;2023-06-04T06:58:12;1.40;;;1.30;;
15814;SDS011;8008;50.024;8.172;2023-06-04T07:00:40;1.52;;;1.40;;
15814;SDS011;8008;50.024;8.172;2023-06-04T07:03:08;2.15;;;1.42;;
15814;SDS011;8008;50.024;8.172;2023-06-04T07:05:36;1.70;;;1.42;;
15814;SDS011;8008;50.024;8.172;2023-06-04T07:08:04;1.55;;;1.40;;
15814;SDS011;8008;50.024;8.172;2023-06-04T07:10:32;6.43;;;1.50;;
15814;SDS011;8008;50.024;8.172;2023-06-04T07:13:00;2.60;;;1.50;;
15814;SDS011;8008;50.024;8.172;2023-06-04T07:15:29;3.75;;;1.30;;
15814;SDS011;8008;50.024;8.172;2023-06-04T07:17:57;3.38;;;1.30;;
15814;SDS011;8008;50.024;8.172;2023-06-04T07:20:25;2.85;;;1.45;;
15814;SDS011;8008;50.024;8.172;2023-06-04T07:22:53;1.40;;;1.30;;
15814;SDS011;8008;50.024;8.172;2023-06-04T07:25:21;2.35;;;1.60;;
15814;SDS011;8008;50.024;8.172;2023-06-04T07:27:50;1.40;;;1.30;;
15814;SDS011;8008;50.024;8.172;2023-06-04T07:30:18;1.95;;;1.60;;
15814;SDS011;8008;50.024;8.172;2023-06-04T07:32:47;3.70;;;1.52;;
15814;SDS011;8008;50.024;8.172;2023-06-04T07:35:16;1.67;;;1.30;;
15814;SDS011;8008;50.024;8.172;2023-06-04T07:37:44;1.70;;;1.55;;
15814;SDS011;8008;50.024;8.172;2023-06-04T07:40:14;4.03;;;1.50;;
15814;SDS011;8008;50.024;8.172;2023-06-04T07:42:42;1.63;;;1.48;;
15814;SDS011;8008;50.024;8.172;2023-06-04T07:45:10;3.20;;;1.40;;
15814;SDS011;8008;50.024;8.172;2023-06-04T07:47:38;1.88;;;1.52;;
15814;SDS011;8008;50.024;8.172;2023-06-04T07:50:08;2.05;;;1.50;;
15814;SDS011;8008;50.024;8.172;2023-06-04T07:52:36;1.45;;;1.35;;
15814;SDS011;8008;50.024;8.172;2023-06-04T07:55:04;3.83;;;1.52;;
15814;SDS011;8008;50.024;8.172;2023-06-04T07:57:34;3.15;;;1.60;;
15814;SDS011;8008;50.024;8.172;2023-06-04T08:00:02;3.00;;;1.60;;
15814;SDS011;8008;50.024;8.172;2023-06-04T08:02:37;2.40;;;1.50;;
15814;SDS011;8008;50.024;8.172;2023-06-04T08:05:05;1.95;;;1.40;;
15814;SDS011;8008;50.024;8.172;2023-06-04T08:07:35;3.08;;;1.60;;
15814;SDS011;8008;50.024;8.172;2023-06-04T08:10:03;2.88;;;1.50;;
15814;SDS011;8008;50.024;8.172;2023-06-04T08:12:31;2.65;;;1.50;;
15814;SDS011;8008;50.024;8.172;2023-06-04T08:14:59;1.63;;;1.52;;
15814;SDS011;8008;50.024;8.172;2023-06-04T08:17:27;1.55;;;1.45;;
15814;SDS011;8008;50.024;8.172;2023-06-04T08:19:55;1.88;;;1.42;;
15814;SDS011;8008;50.024;8.172;2023-06-04T08:22:23;3.78;;;1.55;;
15814;SDS011;8008;50.024;8.172;2023-06-04T08:24:53;3.50;;;1.50;;
15814;SDS011;8008;50.024;8.172;2023-06-04T08:27:21;2.92;;;1.50;;
15814;SDS011;8008;50.024;8.172;2023-06-04T08:29:49;2.15;;;1.67;;
15814;SDS011;8008;50.024;8.172;2023-06-04T08:32:18;1.65;;;1.55;;
15814;SDS011;8008;50.024;8.172;2023-06-04T08:34:46;1.58;;;1.40;;
15814;SDS011;8008;50.024;8.172;2023-06-04T08:37:14;2.85;;;1.50;;
15814;SDS011;8008;50.024;8.172;2023-06-04T08:39:42;3.90;;;1.70;;
15814;SDS011;8008;50.024;8.172;2023-06-04T08:42:13;1.95;;;1.58;;
15814;SDS011;8008;50.024;8.172;2023-06-04T08:44:47;1.60;;;1.30;;
15814;SDS011;8008;50.024;8.172;2023-06-04T08:47:18;2.88;;;1.52;;
15814;SDS011;8008;50.024;8.172;2023-06-04T08:49:48;3.15;;;1.40;;
15814;SDS011;8008;50.024;8.172;2023-06-04T08:52:17;1.73;;;1.58;;
15814;SDS011;8008;50.024;8.172;2023-06-04T08:54:48;2.50;;;1.58;;
15814;SDS011;8008;50.024;8.172;2023-06-04T08:57:18;1.83;;;1.63;;
15814;SDS011;8008;50.024;8.172;2023-06-04T08:59:46;2.70;;;1.70;;
15814;SDS011;8008;50.024;8.172;2023-06-04T09:02:15;3.35;;;1.52;;
15814;SDS011;8008;50.024;8.172;2023-06-04T09:04:43;1.92;;;1.50;;
15814;SDS011;8008;50.024;8.172;2023-06-04T09:07:12;1.95;;;1.70;;
15814;SDS011;8008;50.024;8.172;2023-06-04T09:09:42;1.40;;;1.30;;
15814;SDS011;8008;50.024;8.172;2023-06-04T09:12:27;1.70;;;1.60;;
15814;SDS011;8008;50.024;8.172;2023-06-04T09:14:58;2.22;;;1.63;;
15814;SDS011;8008;50.024;8.172;2023-06-04T09:17:26;1.88;;;1.60;;
15814;SDS011;8008;50.024;8.172;2023-06-04T09:19:56;2.67;;;1.60;;
15814;SDS011;8008;50.024;8.172;2023-06-04T09:22:31;1.90;;;1.52;;
15814;SDS011;8008;50.024;8.172;2023-06-04T09:25:00;1.75;;;1.65;;
15814;SDS011;8008;50.024;8.172;2023-06-04T09:27:38;2.78;;;1.73;;
15814;SDS011;8008;50.024;8.172;2023-06-04T09:30:07;1.77;;;1.60;;
15814;SDS011;8008;50.024;8.172;2023-06-04T09:32:36;2.15;;;1.75;;
15814;SDS011;8008;50.024;8.172;2023-06-04T09:35:10;1.50;;;1.30;;
15814;SDS011;8008;50.024;8.172;2023-06-04T09:37:40;1.90;;;1.80;;
15814;SDS011;8008;50.024;8.172;2023-06-04T09:40:09;3.50;;;1.58;;
15814;SDS011;8008;50.024;8.172;2023-06-04T09:42:43;3.10;;;1.73;;
15814;SDS011;8008;50.024;8.172;2023-06-04T09:45:11;3.50;;;1.58;;
15814;SDS011;8008;50.024;8.172;2023-06-04T09:47:40;2.13;;;1.50;;
15814;SDS011;8008;50.024;8.172;2023-06-04T09:50:10;5.45;;;1.70;;
15814;SDS011;8008;50.024;8.172;2023-06-04T09:52:38;3.67;;;1.50;;
15814;SDS011;8008;50.024;8.172;2023-06-04T09:55:16;2.08;;;1.55;;
15814;SDS011;8008;50.024;8.172;2023-06-04T09:57:49;1.77;;;1.50;;
15814;SDS011;8008;50.024;8.172;2023-06-04T10:00:19;3.00;;;1.55;;
15814;SDS011;8008;50.024;8.172;2023-06-04T10:02:49;1.90;;;1.60;;
15814;SDS011;8008;50.024;8.172;2023-06-04T10:05:21;2.83;;;1.70;;
15814;SDS011;8008;50.024;8.172;2023-06-04T10:07:51;2.83;;;1.48;;
15814;SDS011;8008;50.024;8.172;2023-06-04T10:10:20;2.90;;;1.40;;
15814;SDS011;8008;50.024;8.172;2023-06-04T10:12:53;2.65;;;1.52;;
15814;SDS011;8008;50.024;8.172;2023-06-04T10:15:26;3.03;;;1.70;;
15814;SDS011;8008;50.024;8.172;2023-06-04T10:17:55;1.60;;;1.40;;
15814;SDS011;8008;50.024;8.172;2023-06-04T10:20:23;1.88;;;1.50;;
15814;SDS011;8008;50.024;8.172;2023-06-04T10:22:51;1.92;;;1.25;;
15814;SDS011;8008;50.024;8.172;2023-06-04T10:25:19;3.05;;;1.70;;
15814;SDS011;8008;50.024;8.172;2023-06-04T10:27:47;2.60;;;1.52;;
15814;SDS011;8008;50.024;8.172;2023-06-04T10:30:20;2.33;;;1.40;;
15814;SDS011;8008;50.024;8.172;2023-06-04T10:32:48;1.88;;;1.58;;
15814;SDS011;8008;50.024;8.172;2023-06-04T10:35:16;4.90;;;1.90;;
15814;SDS011;8008;50.024;8.172;2023-06-04T10:37:44;2.55;;;1.65;;
15814;SDS011;8008;50.024;8.172;2023-06-04T10:40:14;2.13;;;1.50;;
15814;SDS011;8008;50.024;8.172;2023-06-04T10:42:42;1.63;;;1.50;;
15814;SDS011;8008;50.024;8.172;2023-06-04T10:45:12;3.47;;;1.88;;
15814;SDS011;8008;50.024;8.172;2023-06-04T10:47:39;2.03;;;1.42;;
15814;SDS011;8008;50.024;8.172;2023-06-04T10:50:08;2.35;;;1.63;;
15814;SDS011;8008;50.024;8.172;2023-06-04T10:52:37;5.25;;;1.60;;
15814;SDS011;8008;50.024;8.172;2023-06-04T10:55:07;2.10;;;1.50;;
15814;SDS011;8008;50.024;8.172;2023-06-04T10:57:36;1.85;;;1.67;;
15814;SDS011;8008;50.024;8.172;2023-06-04T11:00:05;2.42;;;1.60;;
15814;SDS011;8008;50.024;8.172;2023-06-04T11:02:38;2.08;;;1.85;;
15814;SDS011;8008;50.024;8.172;2023-06-04T11:05:17;4.07;;;1.88;;
15814;SDS011;8008;50.024;8.172;2023-06-04T11:07:46;1.73;;;1.60;;
15814;SDS011;8008;50.024;8.172;2023-06-04T11:10:16;2.53;;;1.63;;
15814;SDS011;8008;50.024;8.172;2023-06-04T11:12:45;1.80;;;1.70;;
15814;SDS011;8008;50.024;8.172;2023-06-04T11:15:14;1.60;;;1.50;;
15814;SDS011;8008;50.024;8.172;2023-06-04T11:17:51;3.45;;;1.60;;
15814;SDS011;8008;50.024;8.172;2023-06-04T11:20:21;2.35;;;1.70;;
15814;SDS011;8008;50.024;8.172;2023-06-04T11:22:50;2.38;;;1.77;;
15814;SDS011;8008;50.024;8.172;2023-06-04T11:25:19;1.45;;;1.35;;
15814;SDS011;8008;50.024;8.172;2023-06-04T11:27:48;2.10;;;1.90;;
15814;SDS011;8008;50.024;8.172;2023-06-04T11:30:17;1.73;;;1.55;;
15814;SDS011;8008;50.024;8.172;2023-06-04T11:32:45;2.75;;;1.70;;
15814;SDS011;8008;50.024;8.172;2023-06-04T11:35:15;1.77;;;1.60;;
15814;SDS011;8008;50.024;8.172;2023-06-04T11:37:52;3.55;;;1.70;;
15814;SDS011;8008;50.024;8.172;2023-06-04T11:40:21;1.95;;;1.75;;
15814;SDS011;8008;50.024;8.172;2023-06-04T11:42:49;2.03;;;1.77;;
15814;SDS011;8008;50.024;8.172;2023-06-04T11:45:18;2.67;;;1.65;;
15814;SDS011;8008;50.024;8.172;2023-06-04T11:47:47;1.90;;;1.65;;
15814;SDS011;8008;50.024;8.172;2023-06-04T11:50:17;4.15;;;1.80;;
15814;SDS011;8008;50.024;8.172;2023-06-04T11:52:45;1.98;;;1.75;;
15814;SDS011;8008;50.024;8.172;2023-06-04T11:55:14;2.85;;;1.77;;
15814;SDS011;8008;50.024;8.172;2023-06-04T11:57:47;1.90;;;1.80;;
15814;SDS011;8008;50.024;8.172;2023-06-04T12:00:16;2.20;;;1.65;;
15814;SDS011;8008;50.024;8.172;2023-06-04T12:02:50;2.38;;;1.70;;
15814;SDS011;8008;50.024;8.172;2023-06-04T12:05:22;2.55;;;1.92;;
15814;SDS011;8008;50.024;8.172;2023-06-04T12:08:05;2.00;;;1.73;;
15814;SDS011;8008;50.024;8.172;2023-06-04T12:10:39;2.92;;;1.75;;
15814;SDS011;8008;50.024;8.172;2023-06-04T12:13:07;1.60;;;1.45;;
15814;SDS011;8008;50.024;8.172;2023-06-04T12:15:36;2.67;;;1.70;;
15814;SDS011;8008;50.024;8.172;2023-06-04T12:18:04;2.20;;;1.88;;
15814;SDS011;8008;50.024;8.172;2023-06-04T12:20:34;2.40;;;2.03;;
15814;SDS011;8008;50.024;8.172;2023-06-04T12:23:04;1.70;;;1.60;;
15814;SDS011;8008;50.024;8.172;2023-06-04T12:25:33;2.00;;;1.80;;
15814;SDS011;8008;50.024;8.172;2023-06-04T12:28:05;1.70;;;1.60;;
15814;SDS011;8008;50.024;8.172;2023-06-04T12:30:36;3.28;;;1.75;;
15814;SDS011;8008;50.024;8.172;2023-06-04T12:33:04;3.17;;;1.70;;
15814;SDS011;8008;50.024;8.172;2023-06-04T12:35:34;2.35;;;1.70;;
15814;SDS011;8008;50.024;8.172;2023-06-04T12:38:02;2.22;;;1.80;;
15814;SDS011;8008;50.024;8.172;2023-06-04T12:40:31;2.25;;;1.60;;
15814;SDS011;8008;50.024;8.172;2023-06-04T12:42:59;2.28;;;1.80;;
15814;SDS011;8008;50.024;8.172;2023-06-04T12:45:27;2.38;;;1.80;;
15814;SDS011;8008;50.024;8.172;2023-06-04T12:47:55;1.60;;;1.50;;
15814;SDS011;8008;50.024;8.172;2023-06-04T12:50:23;3.83;;;1.60;;
15814;SDS011;8008;50.024;8.172;2023-06-04T12:52:53;2.80;;;1.83;;
15814;SDS011;8008;50.024;8.172;2023-06-04T12:55:21;2.03;;;1.73;;
15814;SDS011;8008;50.024;8.172;2023-06-04T12:57:51;2.22;;;1.60;;
15814;SDS011;8008;50.024;8.172;2023-06-04T13:00:19;2.33;;;1.70;;
15814;SDS011;8008;50.024;8.172;2023-06-04T13:02:47;1.63;;;1.52;;
15814;SDS011;8008;50.024;8.172;2023-06-04T13:05:15;2.35;;;1.50;;
15814;SDS011;8008;50.024;8.172;2023-06-04T13:07:43;1.70;;;1.58;;
15814;SDS011;8008;50.024;8.172;2023-06-04T13:10:12;15.73;;;2.30;;
15814;SDS011;8008;50.024;8.172;2023-06-04T13:12:40;2.97;;;1.63;;
15814;SDS011;8008;50.024;8.172;2023-06-04T13:15:08;3.30;;;1.73;;
15814;SDS011;8008;50.024;8.172;2023-06-04T13:17:37;1.80;;;1.70;;
15814;SDS011;8008;50.024;8.172;2023-06-04T13:20:05;3.13;;;1.85;;
15814;SDS011;8008;50.024;8.172;2023-06-04T13:22:35;2.30;;;1.95;;
15814;SDS011;8008;50.024;8.172;2023-06-04T13:25:04;3.50;;;1.50;;
15814;SDS011;8008;50.024;8.172;2023-06-04T13:27:34;1.83;;;1.73;;
15814;SDS011;8008;50.024;8.172;2023-06-04T13:30:02;3.28;;;1.75;;
15814;SDS011;8008;50.024;8.172;2023-06-04T13:32:30;2.13;;;1.77;;
15814;SDS011;8008;50.024;8.172;2023-06-04T13:34:58;2.85;;;1.75;;
15814;SDS011;8008;50.024;8.172;2023-06-04T13:37:26;1.90;;;1.80;;
15814;SDS011;8008;50.024;8.172;2023-06-04T13:39:54;2.97;;;2.00;;
15814;SDS011;8008;50.024;8.172;2023-06-04T13:42:22;2.72;;;1.90;;
15814;SDS011;8008;50.024;8.172;2023-06-04T13:44:51;1.73;;;1.48;;
15814;SDS011;8008;50.024;8.172;2023-06-04T13:47:19;1.80;;;1.70;;
15814;SDS011;8008;50.024;8.172;2023-06-04T13:49:48;3.00;;;2.20;;
15814;SDS011;8008;50.024;8.172;2023-06-04T13:52:16;2.25;;;1.90;;
15814;SDS011;8008;50.024;8.172;2023-06-04T13:54:44;3.78;;;1.70;;
15814;SDS011;8008;50.024;8.172;2023-06-04T13:57:12;1.98;;;1.85;;
15814;SDS011;8008;50.024;8.172;2023-06-04T13:59:40;1.70;;;1.60;;
15814;SDS011;8008;50.024;8.172;2023-06-04T14:02:09;3.38;;;1.92;;
15814;SDS011;8008;50.024;8.172;2023-06-04T14:04:37;1.60;;;1.50;;
15814;SDS011;8008;50.024;8.172;2023-06-04T14:07:05;1.75;;;1.65;;
15814;SDS011;8008;50.024;8.172;2023-06-04T14:09:33;1.83;;;1.73;;
15814;SDS011;8008;50.024;8.172;2023-06-04T14:12:02;2.15;;;1.90;;
15814;SDS011;8008;50.024;8.172;2023-06-04T14:14:30;2.50;;;2.05;;
15814;SDS011;8008;50.024;8.172;2023-06-04T14:17:02;2.90;;;1.88;;
15814;SDS011;8008;50.024;8.172;2023-06-04T14:19:33;2.20;;;1.70;;
15814;SDS011;8008;50.024;8.172;2023-06-04T14:22:01;1.75;;;1.60;;
15814;SDS011;8008;50.024;8.172;2023-06-04T14:24:29;3.03;;;1.83;;
15814;SDS011;8008;50.024;8.172;2023-06-04T14:26:57;3.00;;;1.90;;
15814;SDS011;8008;50.024;8.172;2023-06-04T14:29:25;2.38;;;1.58;;
15814;SDS011;8008;50.024;8.172;2023-06-04T14:31:53;2.10;;;1.60;;
15814;SDS011;8008;50.024;8.172;2023-06-04T14:34:22;1.80;;;1.70;;
15814;SDS011;8008;50.024;8.172;2023-06-04T14:36:51;1.98;;;1.52;;
15814;SDS011;8008;50.024;8.172;2023-06-04T14:39:19;2.35;;;1.52;;
15814;SDS011;8008;50.024;8.172;2023-06-04T14:41:48;2.78;;;1.70;;
15814;SDS011;8008;50.024;8.172;2023-06-04T14:44:17;1.80;;;1.70;;
15814;SDS011;8008;50.024;8.172;2023-06-04T14:46:45;2.85;;;1.70;;
15814;SDS011;8008;50.024;8.172;2023-06-04T14:49:13;1.98;;;1.63;;
15814;SDS011;8008;50.024;8.172;2023-06-04T14:51:41;1.75;;;1.65;;
15814;SDS011;8008;50.024;8.172;2023-06-04T14:54:10;2.17;;;1.67;;
15814;SDS011;8008;50.024;8.172;2023-06-04T14:56:38;1.60;;;1.50;;
15814;SDS011;8008;50.024;8.172;2023-06-04T14:59:06;1.67;;;1.40;;
15814;SDS011;8008;50.024;8.172;2023-06-04T15:01:37;2.03;;;1.70;;
15814;SDS011;8008;50.024;8.172;2023-06-04T15:04:07;2.58;;;1.70;;
15814;SDS011;8008;50.024;8.172;2023-06-04T15:06:35;1.60;;;1.50;;
15814;SDS011;8008;50.024;8.172;2023-06-04T15:09:03;1.77;;;1.67;;
15814;SDS011;8008;50.024;8.172;2023-06-04T15:11:33;2.25;;;1.60;;
15814;SDS011;8008;50.024;8.172;2023-06-04T15:14:01;1.98;;;1.83;;
15814;SDS011;8008;50.024;8.172;2023-06-04T15:16:29;1.95;;;1.70;;
15814;SDS011;8008;50.024;8.172;2023-06-04T15:18:57;2.75;;;1.70;;
15814;SDS011;8008;50.024;8.172;2023-06-04T15:21:25;5.43;;;1.73;;
15814;SDS011;8008;50.024;8.172;2023-06-04T15:23:53;3.08;;;1.70;;
15814;SDS011;8008;50.024;8.172;2023-06-04T15:26:21;1.90;;;1.80;;
15814;SDS011;8008;50.024;8.172;2023-06-04T15:28:52;1.75;;;1.65;;
15814;SDS011;8008;50.024;8.172;2023-06-04T15:31:21;88.63;;;6.07;;
15814;SDS011;8008;50.024;8.172;2023-06-04T15:33:49;3.05;;;1.60;;
15814;SDS011;8008;50.024;8.172;2023-06-04T15:36:17;3.58;;;1.92;;
15814;SDS011;8008;50.024;8.172;2023-06-04T15:38:44;1.98;;;1.85;;
15814;SDS011;8008;50.024;8.172;2023-06-04T15:41:15;3.72;;;2.05;;
15814;SDS011;8008;50.024;8.172;2023-06-04T15:43:43;1.90;;;1.80;;
15814;SDS011;8008;50.024;8.172;2023-06-04T15:46:12;2.17;;;2.00;;
15814;SDS011;8008;50.024;8.172;2023-06-04T15:48:40;2.00;;;1.90;;
15814;SDS011;8008;50.024;8.172;2023-06-04T15:51:09;2.10;;;1.92;;
15814;SDS011;8008;50.024;8.172;2023-06-04T15:53:36;2.70;;;1.90;;
15814;SDS011;8008;50.024;8.172;2023-06-04T15:56:04;2.47;;;1.90;;
15814;SDS011;8008;50.024;8.172;2023-06-04T15:58:32;2.85;;;1.90;;
15814;SDS011;8008;50.024;8.172;2023-06-04T16:01:00;2.20;;;2.00;;
15814;SDS011;8008;50.024;8.172;2023-06-04T16:03:30;2.13;;;1.95;;
15814;SDS011;8008;50.024;8.172;2023-06-04T16:05:58;2.38;;;2.10;;
15814;SDS011;8008;50.024;8.172;2023-06-04T16:08:26;2.90;;;2.30;;
15814;SDS011;8008;50.024;8.172;2023-06-04T16:10:54;2.78;;;2.42;;
15814;SDS011;8008;50.024;8.172;2023-06-04T16:13:22;2.67;;;2.20;;
15814;SDS011;8008;50.024;8.172;2023-06-04T16:15:52;3.40;;;2.17;;
15814;SDS011;8008;50.024;8.172;2023-06-04T16:18:21;2.35;;;2.20;;
15814;SDS011;8008;50.024;8.172;2023-06-04T16:20:51;3.13;;;2.50;;
15814;SDS011;8008;50.024;8.172;2023-06-04T16:23:19;3.40;;;2.53;;
15814;SDS011;8008;50.024;8.172;2023-06-04T16:25:47;3.55;;;2.13;;
15814;SDS011;8008;50.024;8.172;2023-06-04T16:28:15;3.15;;;2.50;;
15814;SDS011;8008;50.024;8.172;2023-06-04T16:30:43;3.15;;;2.60;;
15814;SDS011;8008;50.024;8.172;2023-06-04T16:33:12;2.97;;;2.38;;
15814;SDS011;8008;50.024;8.172;2023-06-04T16:35:40;3.33;;;2.47;;
15814;SDS011;8008;50.024;8.172;2023-06-04T16:38:09;3.38;;;2.67;;
15814;SDS011;8008;50.024;8.172;2023-06-04T16:40:37;2.90;;;2.70;;
15814;SDS011;8008;50.024;8.172;2023-06-04T16:43:05;2.80;;;2.60;;
15814;SDS011;8008;50.024;8.172;2023-06-04T16:45:33;3.05;;;2.75;;
15814;SDS011;8008;50.024;8.172;2023-06-04T16:48:01;3.72;;;3.08;;
15814;SDS011;8008;50.024;8.172;2023-06-04T16:50:30;3.08;;;2.70;;
15814;SDS011;8008;50.024;8.172;2023-06-04T16:52:58;3.75;;;2.90;;
15814;SDS011;8008;50.024;8.172;2023-06-04T16:55:30;3.63;;;3.33;;
15814;SDS011;8008;50.024;8.172;2023-06-04T16:58:11;3.67;;;3.10;;
15814;SDS011;8008;50.024;8.172;2023-06-04T17:00:39;3.95;;;2.75;;
15814;SDS011;8008;50.024;8.172;2023-06-04T17:03:07;3.75;;;2.88;;
15814;SDS011;8008;50.024;8.172;2023-06-04T17:05:36;2.90;;;2.70;;
15814;SDS011;8008;50.024;8.172;2023-06-04T17:08:04;3.65;;;3.22;;
15814;SDS011;8008;50.024;8.172;2023-06-04T17:10:34;4.68;;;3.17;;
15814;SDS011;8008;50.024;8.172;2023-06-04T17:13:02;6.35;;;3.45;;
15814;SDS011;8008;50.024;8.172;2023-06-04T17:15:32;3.70;;;3.40;;
15814;SDS011;8008;50.024;8.172;2023-06-04T17:18:00;5.57;;;3.20;;
15814;SDS011;8008;50.024;8.172;2023-06-04T17:20:29;3.85;;;3.33;;
15814;SDS011;8008;50.024;8.172;2023-06-04T17:22:58;4.18;;;3.60;;
15814;SDS011;8008;50.024;8.172;2023-06-04T17:25:27;4.90;;;3.78;;
15814;SDS011;8008;50.024;8.172;2023-06-04T17:27:57;5.38;;;3.80;;
15814;SDS011;8008;50.024;8.172;2023-06-04T17:30:25;5.07;;;3.58;;
15814;SDS011;8008;50.024;8.172;2023-06-04T17:32:53;9.93;;;3.92;;
15814;SDS011;8008;50.024;8.172;2023-06-04T17:35:21;14.15;;;4.32;;
15814;SDS011;8008;50.024;8.172;2023-06-04T17:37:49;6.47;;;3.80;;
15814;SDS011;8008;50.024;8.172;2023-06-04T17:40:17;28.83;;;4.82;;
15814;SDS011;8008;50.024;8.172;2023-06-04T17:42:45;6.20;;;3.80;;
15814;SDS011;8008;50.024;8.172;2023-06-04T17:45:15;4.78;;;4.20;;
15814;SDS011;8008;50.024;8.172;2023-06-04T17:47:43;7.00;;;4.50;;
15814;SDS011;8008;50.024;8.172;2023-06-04T17:50:11;5.82;;;4.22;;
15814;SDS011;8008;50.024;8.172;2023-06-04T17:52:39;10.98;;;5.05;;
15814;SDS011;8008;50.024;8.172;2023-06-04T17:55:08;7.50;;;4.40;;
15814;SDS011;8008;50.024;8.172;2023-06-04T17:57:36;4.22;;;3.83;;
15814;SDS011;8008;50.024;8.172;2023-06-04T18:00:04;5.65;;;3.88;;
15814;SDS011;8008;50.024;8.172;2023-06-04T18:02:41;4.18;;;3.72;;
15814;SDS011;8008;50.024;8.172;2023-06-04T18:05:09;4.93;;;3.95;;
15814;SDS011;8008;50.024;8.172;2023-06-04T18:07:37;4.35;;;3.67;;
15814;SDS011;8008;50.024;8.172;2023-06-04T18:10:06;4.45;;;3.80;;
15814;SDS011;8008;50.024;8.172;2023-06-04T18:12:34;4.05;;;3.65;;